Time;durP1;ratioP1;P1;durP2;ratioP2;P2;SDS_P1;SDS_P2;PMS_P1;PMS_P2;Temp;Humidity;BMP_temperature;BMP_pressure;BME280_temperature;BME280_humidity;BME280_pressure;Samples;Min_cycle;Max_cycle;Signal;HPM_P1;HPM_P2
2024/01/22 16:01:16;;;;;;;;;;;-2.40;99.90;;;;;;5068010;28;20443;-93
2024/01/22 16:03:42;;;;;;;;;;;-2.40;99.90;;;;;;5033666;28;19913;-94
2024/01/22 16:06:08;;;;;;;;;;;-2.40;99.90;;;;;;5035975;28;19916;-95
2024/01/22 16:08:34;;;;;;;;;;;-2.20;99.90;;;;;;5033618;28;19913;-95
2024/01/22 16:10:59;;;;;;;;;;;-2.10;99.90;;;;;;5033740;28;20000;-95
2024/01/22 16:34:09;;;;;;;;;;;-1.60;99.90;;;;;;6017954;22;19927;-96
2024/01/22 16:36:40;;;;;;;;;;;-1.50;99.90;;;;;;4977957;28;19921;-90
2024/01/22 16:39:06;;;;;;;;;;;-1.50;99.90;;;;;;4984466;28;19927;-91
2024/01/22 16:41:31;;;;;;;;;;;-1.40;99.90;;;;;;4969716;28;19960;-91
2024/01/22 16:44:00;;;;;;;;;;;-1.40;99.90;;;;;;4977251;28;19914;-96
2024/01/22 16:46:26;;;;;;;;;;;-1.40;99.90;;;;;;4989099;28;19910;-95
2024/01/22 16:48:57;;;;;;;;;;;-1.40;99.90;;;;;;4992666;28;19905;-94
2024/01/22 16:57:12;;;;;;;;;;;-1.40;99.90;;;;;;5349762;22;20330;-91
2024/01/22 16:59:37;;;;;;;;;;;-1.40;99.90;;;;;;4992965;28;19921;-93
2024/01/22 17:02:03;;;;;;;;;;;-1.40;99.90;;;;;;5010604;28;19920;-93
2024/01/22 17:04:28;;;;;;;;;;;-1.40;99.90;;;;;;4993088;28;20389;-92
2024/01/22 17:07:02;;;;;;;;;;;-1.30;99.90;;;;;;4992144;28;19910;-93
2024/01/22 17:09:27;;;;;;;;;;;-1.30;99.90;;;;;;4983583;28;19913;-93
2024/01/22 17:11:53;;;;;;;;;;;-1.30;99.90;;;;;;4979467;28;20367;-89
2024/01/22 17:14:18;;;;;;;;;;;-1.30;99.90;;;;;;4960644;28;19911;-90
2024/01/22 17:16:44;;;;;;;;;;;-1.30;99.90;;;;;;4987191;28;19943;-89
2024/01/22 17:19:09;;;;;;;;;;;-1.30;99.90;;;;;;4979757;28;19921;-89
2024/01/22 17:21:34;;;;;;;;;;;-1.30;99.90;;;;;;4975872;28;19914;-90
2024/01/22 17:24:00;;;;;;;;;;;-1.30;99.90;;;;;;4977162;28;19914;-91
2024/01/22 17:26:25;;;;;;;;;;;-1.30;99.90;;;;;;4976540;28;19918;-92
2024/01/22 17:28:51;;;;;;;;;;;-1.30;99.90;;;;;;4995514;28;20024;-90
2024/01/22 17:31:17;;;;;;;;;;;-1.30;99.90;;;;;;4997210;28;20363;-90
2024/01/22 17:33:42;;;;;;;;;;;-1.30;99.90;;;;;;4979516;28;19913;-90
2024/01/22 17:36:08;;;;;;;;;;;-1.30;99.90;;;;;;4978986;28;19914;-91
2024/01/22 17:38:35;;;;;;;;;;;-1.30;99.90;;;;;;4997014;28;19936;-91
2024/01/22 17:41:01;;;;;;;;;;;-1.30;99.90;;;;;;4974381;28;19917;-91
2024/01/22 17:43:26;;;;;;;;;;;-1.30;99.90;;;;;;4992078;28;19975;-90
2024/01/22 17:45:52;;;;;;;;;;;-1.30;99.90;;;;;;4979806;28;20358;-90
2024/01/22 17:48:17;;;;;;;;;;;-1.30;99.90;;;;;;4979411;28;19910;-90
2024/01/22 17:50:43;;;;;;;;;;;-1.30;99.90;;;;;;4979320;28;19981;-89
2024/01/22 17:53:08;;;;;;;;;;;-1.30;99.90;;;;;;4991172;28;19921;-91
2024/01/22 17:55:34;;;;;;;;;;;-1.30;99.90;;;;;;4969879;28;20045;-90
2024/01/22 17:57:59;;;;;;;;;;;-1.30;99.90;;;;;;4977540;28;19968;-90
2024/01/22 18:00:25;;;;;;;;;;;-1.30;99.90;;;;;;4996979;28;20374;-91
2024/01/22 18:02:50;;;;;;;;;;;-1.30;99.90;;;;;;4987646;28;19922;-90
2024/01/22 18:05:16;;;;;;;;;;;-1.30;99.90;;;;;;4991592;28;19909;-89
2024/01/22 18:07:42;;;;;;;;;;;-1.30;99.90;;;;;;4973425;28;19921;-90
2024/01/22 18:10:08;;;;;;;;;;;-1.30;99.90;;;;;;4996289;28;19921;-92
2024/01/22 18:12:33;;;;;;;;;;;-1.30;99.90;;;;;;4990470;28;19920;-92
2024/01/22 18:14:59;;;;;;;;;;;-1.30;99.90;;;;;;4993644;28;19922;-91
2024/01/22 18:17:24;;;;;;;;;;;-1.30;99.90;;;;;;4978372;28;19925;-91
2024/01/22 18:19:50;;;;;;;;;;;-1.30;99.90;;;;;;4977312;28;20266;-92
2024/01/22 18:22:16;;;;;;;;;;;-1.40;99.90;;;;;;4978400;28;19910;-90
2024/01/22 18:24:42;;;;;;;;;;;-1.40;99.90;;;;;;4996607;28;19910;-91
2024/01/22 18:27:07;;;;;;;;;;;-1.30;99.90;;;;;;4995950;28;19917;-91
2024/01/22 18:29:34;;;;;;;;;;;-1.30;99.90;;;;;;4996142;28;20286;-91
2024/01/22 18:32:00;;;;;;;;;;;-1.30;99.90;;;;;;4996332;28;19957;-91
2024/01/22 18:34:25;;;;;;;;;;;-1.30;99.90;;;;;;5008684;28;19984;-92
2024/01/22 18:36:51;;;;;;;;;;;-1.30;99.90;;;;;;4988784;28;20312;-92
2024/01/22 18:47:23;;;;;;;;;;;-1.30;99.90;;;;;;5158658;22;19913;-96
2024/01/22 18:49:50;;;;;;;;;;;-1.30;99.90;;;;;;5005274;28;19921;-96
2024/01/22 18:54:51;;;;;;;;;;;-1.30;99.90;;;;;;5166264;22;19909;-96
2024/01/22 18:57:19;;;;;;;;;;;-1.30;99.90;;;;;;5012285;28;20008;-96
2024/01/22 18:59:46;;;;;;;;;;;-1.30;99.90;;;;;;5011265;28;19917;-96
2024/01/22 19:02:13;;;;;;;;;;;-1.30;99.90;;;;;;5015196;28;19924;-96
2024/01/22 19:04:45;;;;;;;;;;;-1.30;99.90;;;;;;5014897;28;19910;-96
2024/01/22 19:07:32;;;;;;;;;;;-1.40;99.90;;;;;;5017716;28;19917;-96
2024/01/22 19:10:01;;;;;;;;;;;-1.30;99.90;;;;;;5027232;28;19920;-96
2024/01/22 19:12:28;;;;;;;;;;;-1.40;99.90;;;;;;5031205;28;19913;-96
2024/01/22 19:14:54;;;;;;;;;;;-1.40;99.90;;;;;;5013560;28;20425;-96
2024/01/22 19:17:20;;;;;;;;;;;-1.40;99.90;;;;;;5024175;28;19913;-96
2024/01/22 19:20:05;;;;;;;;;;;-1.40;99.90;;;;;;5012167;28;19993;-96
2024/01/22 19:25:12;;;;;;;;;;;-1.40;99.90;;;;;;5204592;22;19960;-96
2024/01/22 19:30:14;;;;;;;;;;;-1.40;99.90;;;;;;5414609;22;19926;-96
2024/01/22 19:32:45;;;;;;;;;;;-1.40;99.90;;;;;;5011641;28;19936;-96
2024/01/22 19:35:15;;;;;;;;;;;-1.40;99.90;;;;;;5010727;28;20270;-96
2024/01/22 19:45:51;;;;;;;;;;;-1.40;99.90;;;;;;5847341;22;19952;-96
2024/01/22 19:48:36;;;;;;;;;;;-1.40;99.90;;;;;;5550684;22;19949;-96
2024/01/22 19:51:02;;;;;;;;;;;-1.40;99.90;;;;;;5003299;28;19925;-96
2024/01/22 19:53:28;;;;;;;;;;;-1.40;99.90;;;;;;5012194;28;19953;-96
2024/01/22 19:55:54;;;;;;;;;;;-1.50;99.90;;;;;;5022596;28;19913;-96
2024/01/22 19:58:21;;;;;;;;;;;-1.40;99.90;;;;;;5014890;28;19909;-96
2024/01/22 20:00:47;;;;;;;;;;;-1.50;99.90;;;;;;5009985;28;19914;-96
2024/01/22 20:03:14;;;;;;;;;;;-1.50;99.90;;;;;;5006560;28;19913;-96
2024/01/22 20:05:40;;;;;;;;;;;-1.50;99.90;;;;;;5017635;28;19893;-95
2024/01/22 20:08:06;;;;;;;;;;;-1.50;99.90;;;;;;4989861;28;19937;-96
2024/01/22 20:10:32;;;;;;;;;;;-1.50;99.90;;;;;;5001406;28;20377;-95
2024/01/22 20:12:57;;;;;;;;;;;-1.50;99.90;;;;;;4981278;28;19910;-96
2024/01/22 20:15:23;;;;;;;;;;;-1.50;99.90;;;;;;4982491;28;19917;-96
2024/01/22 20:17:48;;;;;;;;;;;-1.50;99.90;;;;;;4984061;28;19914;-96
